createdAt,value
2023-05-24T00:00:42.375Z,99981.88
2023-05-24T00:02:45.437Z,99979.38
2023-05-24T00:04:49.614Z,99967.25
2023-05-24T00:06:55.117Z,99973.72
2023-05-24T00:08:58.217Z,99980.41
2023-05-24T00:11:01.089Z,99978.47
2023-05-24T00:13:03.831Z,99970.50
2023-05-24T00:15:07.248Z,99975.59
2023-05-24T00:17:10.269Z,99977.56
2023-05-24T00:19:18.441Z,99980.66
2023-05-24T00:21:21.698Z,99977.44
2023-05-24T00:23:27.175Z,99982.97
2023-05-24T00:25:29.793Z,99982.53
2023-05-24T00:27:33.190Z,99981.00
2023-05-24T00:29:36.330Z,99974.66
2023-05-24T00:31:39.047Z,99972.34
2023-05-24T00:33:41.866Z,99978.34
2023-05-24T00:35:44.540Z,99974.88
2023-05-24T00:37:47.112Z,99974.53
2023-05-24T00:39:49.866Z,99971.75
2023-05-24T00:41:52.712Z,99976.97
2023-05-24T00:43:55.360Z,99975.44
2023-05-24T00:46:27.283Z,99976.72
2023-05-24T00:48:30.252Z,99967.94
2023-05-24T00:50:33.470Z,99975.91
2023-05-24T00:52:37.250Z,99963.09
2023-05-24T00:54:40.947Z,99976.72
2023-05-24T00:56:44.197Z,99978.44
2023-05-24T00:58:47.386Z,99970.44
2023-05-24T01:00:52.376Z,99972.41
2023-05-24T01:02:55.330Z,99971.63
2023-05-24T01:05:00.214Z,99979.56
2023-05-24T01:07:05.859Z,99977.97
2023-05-24T01:09:28.625Z,99979.94
2023-05-24T01:11:33.902Z,99978.31
2023-05-24T01:13:39.199Z,99976.72
2023-05-24T01:15:50.701Z,99978.22
2023-05-24T01:17:56.015Z,99978.56
2023-05-24T01:20:07.042Z,99973.59
2023-05-24T01:22:21.613Z,99975.59
2023-05-24T01:24:52.061Z,99977.19
2023-05-24T01:27:07.931Z,99976.38
2023-05-24T01:29:11.089Z,99973.59
2023-05-24T01:31:15.995Z,99972.47
2023-05-24T01:33:19.056Z,99969.31
2023-05-24T01:35:21.963Z,99970.50
2023-05-24T01:37:24.635Z,99973.72
2023-05-24T01:39:29.894Z,99955.91
2023-05-24T01:41:47.753Z,99966.28
2023-05-24T01:44:08.836Z,99958.81
2023-05-24T01:46:20.142Z,99964.34
2023-05-24T01:48:47.530Z,99954.50
2023-05-24T01:50:57.831Z,99966.97
2023-05-24T01:53:06.702Z,99960.84
2023-05-24T01:55:10.490Z,99965.34
2023-05-24T01:57:13.440Z,99955.88
2023-05-24T01:59:16.673Z,99960.25
2023-05-24T02:01:19.900Z,99964.63
2023-05-24T02:03:23.022Z,99967.41
2023-05-24T02:05:25.742Z,99962.69
2023-05-24T02:07:31.822Z,99960.25
2023-05-24T02:09:34.630Z,99959.53
2023-05-24T02:11:37.330Z,99960.78
2023-05-24T02:13:40.536Z,99967.25
2023-05-24T02:15:43.478Z,99959.03
2023-05-24T02:17:46.464Z,99958.31
2023-05-24T02:19:49.288Z,99957.59
2023-05-24T02:21:53.247Z,99959.22
2023-05-24T02:23:56.082Z,99963.81
2023-05-24T02:25:58.802Z,99958.72
2023-05-24T02:28:02.243Z,99961.66
2023-05-24T02:30:07.058Z,99965.81
2023-05-24T02:32:09.700Z,99962.78
2023-05-24T02:34:12.398Z,99956.16
2023-05-24T02:36:15.001Z,99958.19
2023-05-24T02:38:17.576Z,99958.31
2023-05-24T02:40:20.321Z,99956.44
2023-05-24T02:42:24.207Z,99957.31
2023-05-24T02:44:26.842Z,99949.88
2023-05-24T02:46:29.562Z,99955.88
2023-05-24T02:48:32.487Z,99960.25
2023-05-24T02:50:35.118Z,99956.78
2023-05-24T02:52:37.831Z,99950.16
2023-05-24T02:54:40.999Z,99956.25
2023-05-24T02:56:43.624Z,99955.63
2023-05-24T02:58:46.390Z,99966.47
2023-05-24T03:00:49.158Z,99960.19
2023-05-24T03:02:52.785Z,99962.78
2023-05-24T03:04:56.142Z,99960.91
2023-05-24T03:06:58.769Z,99969.88
2023-05-24T03:09:01.374Z,99958.44
2023-05-24T03:11:04.126Z,99958.97
2023-05-24T03:13:06.753Z,99956.72
2023-05-24T03:15:10.062Z,99958.84
2023-05-24T03:17:12.788Z,99962.16
2023-05-24T03:19:17.491Z,99960.78
2023-05-24T03:21:21.088Z,99959.75
2023-05-24T03:23:23.866Z,99955.16
2023-05-24T03:25:27.530Z,99957.72
2023-05-24T03:27:30.137Z,99961.47
2023-05-24T03:29:32.928Z,99961.63
2023-05-24T03:31:35.855Z,99965.13
2023-05-24T03:33:38.934Z,99964.41
2023-05-24T03:35:41.645Z,99957.22
2023-05-24T03:37:44.231Z,99948.81
2023-05-24T03:39:46.827Z,99948.94
2023-05-24T03:41:49.599Z,99957.75
2023-05-24T03:43:53.076Z,99950.69
2023-05-24T03:45:56.192Z,99948.34
2023-05-24T03:47:58.983Z,99953.72
2023-05-24T03:50:01.709Z,99946.25
2023-05-24T03:52:07.518Z,99953.28
2023-05-24T03:54:10.415Z,99952.22
2023-05-24T03:56:13.063Z,99939.16
2023-05-24T03:58:15.724Z,99953.97
2023-05-24T04:00:18.702Z,99961.69
2023-05-24T04:02:21.374Z,99946.75
2023-05-24T04:04:24.295Z,99948.47
2023-05-24T04:06:29.615Z,99950.09
2023-05-24T04:08:32.625Z,99954.16
2023-05-24T04:10:35.401Z,99945.97
2023-05-24T04:12:38.148Z,99949.22
2023-05-24T04:14:40.998Z,99944.56
2023-05-24T04:16:45.333Z,99938.34
2023-05-24T04:18:48.288Z,99951.25
2023-05-24T04:20:51.230Z,99944.66
2023-05-24T04:22:54.660Z,99945.97
2023-05-24T04:24:57.420Z,99937.75
2023-05-24T04:27:00.266Z,99955.84
2023-05-24T04:29:03.937Z,99947.50
2023-05-24T04:31:06.945Z,99936.84
2023-05-24T04:33:09.657Z,99932.59
2023-05-24T04:35:12.789Z,99936.34
2023-05-24T04:37:17.416Z,99936.03
2023-05-24T04:39:22.324Z,99935.75
2023-05-24T04:41:25.077Z,99933.09
2023-05-24T04:43:28.416Z,99933.59
2023-05-24T04:45:33.159Z,99941.69
2023-05-24T04:47:35.960Z,99932.63
2023-05-24T04:49:39.795Z,99933.13
2023-05-24T04:51:42.829Z,99934.78
2023-05-24T04:53:46.049Z,99933.97
2023-05-24T04:55:49.582Z,99933.97
2023-05-24T04:57:52.364Z,99949.19
2023-05-24T04:59:55.198Z,99933.22
2023-05-24T05:01:59.020Z,99935.19
2023-05-24T05:04:04.671Z,99934.81
2023-05-24T05:06:07.464Z,99938.41
2023-05-24T05:08:10.185Z,99938.31
2023-05-24T05:10:12.930Z,99928.28
2023-05-24T05:12:15.671Z,99941.03
2023-05-24T05:14:18.392Z,99943.41
2023-05-24T05:16:21.247Z,99945.38
2023-05-24T05:18:23.844Z,99943.78
2023-05-24T05:20:26.605Z,99938.94
2023-05-24T05:22:31.216Z,99946.53
2023-05-24T05:24:34.212Z,99942.16
2023-05-24T05:26:36.885Z,99941.00
2023-05-24T05:28:39.509Z,99937.47
2023-05-24T05:30:42.482Z,99943.94
2023-05-24T05:32:45.457Z,99930.41
2023-05-24T05:34:48.110Z,99942.94
2023-05-24T05:36:50.851Z,99942.22
2023-05-24T05:38:54.785Z,99946.69
2023-05-24T05:40:57.433Z,99938.72
2023-05-24T05:43:00.196Z,99937.97
2023-05-24T05:45:03.585Z,99939.66
2023-05-24T05:47:09.751Z,99934.91
2023-05-24T05:49:14.040Z,99935.31
2023-05-24T05:51:16.656Z,99938.56
2023-05-24T05:53:19.438Z,99936.59
2023-05-24T05:55:22.251Z,99925.75
2023-05-24T05:57:25.131Z,99935.78
2023-05-24T05:59:27.917Z,99936.16
2023-05-24T06:01:30.615Z,99940.16
2023-05-24T06:03:33.302Z,99939.34
2023-05-24T06:05:36.215Z,99944.09
2023-05-24T06:07:38.885Z,99934.88
2023-05-24T06:09:41.940Z,99936.78
2023-05-24T06:11:45.367Z,99944.75
2023-05-24T06:13:48.187Z,99945.13
2023-05-24T06:15:52.907Z,99942.25
2023-05-24T06:17:55.713Z,99939.81
2023-05-24T06:19:58.364Z,99946.59
2023-05-24T06:22:01.566Z,99945.38
2023-05-24T06:24:04.990Z,99936.94
2023-05-24T06:26:09.788Z,99934.97
2023-05-24T06:28:12.469Z,99934.56
2023-05-24T06:30:15.450Z,99938.19
2023-05-24T06:32:18.349Z,99934.56
2023-05-24T06:34:24.054Z,99936.94
2023-05-24T06:36:27.522Z,99935.75
2023-05-24T06:38:30.215Z,99951.44
2023-05-24T06:40:32.832Z,99936.94
2023-05-24T06:42:37.189Z,99933.28
2023-05-24T06:44:41.352Z,99933.13
2023-05-24T06:46:44.088Z,99932.97
2023-05-24T06:48:47.832Z,99925.78
2023-05-24T06:50:50.869Z,99930.69
2023-05-24T06:52:53.473Z,99923.88
2023-05-24T06:54:56.739Z,99936.31
2023-05-24T06:56:59.580Z,99938.34
2023-05-24T06:59:02.482Z,99941.16
2023-05-24T07:01:05.531Z,99943.53
2023-05-24T07:03:10.017Z,99946.78
2023-05-24T07:05:12.848Z,99943.13
2023-05-24T07:07:16.096Z,99944.31
2023-05-24T07:09:19.737Z,99927.81
2023-05-24T07:11:22.972Z,99934.56
2023-05-24T07:13:25.813Z,99935.78
2023-05-24T07:15:28.399Z,99939.81
2023-05-24T07:17:31.292Z,99927.69
2023-05-24T07:19:36.179Z,99931.25
2023-05-24T07:21:38.896Z,99934.38
2023-05-24T07:23:41.502Z,99924.22
2023-05-24T07:25:44.211Z,99920.47
2023-05-24T07:27:46.996Z,99929.16
2023-05-24T07:29:50.565Z,99924.22
2023-05-24T07:31:56.304Z,99920.91
2023-05-24T07:33:59.260Z,99912.78
2023-05-24T07:36:02.919Z,99915.47
2023-05-24T07:38:05.969Z,99920.28
2023-05-24T07:40:12.744Z,99911.81
2023-05-24T07:42:15.384Z,99906.19
2023-05-24T07:44:19.513Z,99911.09
2023-05-24T07:46:22.810Z,99908.84
2023-05-24T07:48:26.157Z,99906.66
2023-05-24T07:50:29.496Z,99906.22
2023-05-24T07:52:32.250Z,99902.81
2023-05-24T07:54:34.825Z,99916.00
2023-05-24T07:56:37.951Z,99903.56
2023-05-24T07:58:42.134Z,99898.88
2023-05-24T08:00:45.319Z,99905.22
2023-05-24T08:02:47.981Z,99900.25
2023-05-24T08:04:50.761Z,99903.06
2023-05-24T08:06:54.483Z,99904.13
2023-05-24T08:08:57.206Z,99896.38
2023-05-24T08:11:00.003Z,99900.97
2023-05-24T08:13:03.521Z,99903.97
2023-05-24T08:15:06.917Z,99893.47
2023-05-24T08:17:09.673Z,99903.88
2023-05-24T08:19:12.325Z,99906.59
2023-05-24T08:21:14.986Z,99902.53
2023-05-24T08:23:17.776Z,99909.41
2023-05-24T08:25:21.107Z,99926.34
2023-05-24T08:27:23.996Z,99932.00
2023-05-24T08:29:26.795Z,99933.38
2023-05-24T08:31:29.580Z,99932.66
2023-05-24T08:33:32.936Z,99936.84
2023-05-24T08:35:36.303Z,99935.19
2023-05-24T08:37:38.969Z,99936.47
2023-05-24T08:39:41.693Z,99931.63
2023-05-24T08:41:49.520Z,99936.03
2023-05-24T08:44:02.679Z,99929.09
2023-05-24T08:46:07.340Z,99929.09
2023-05-24T08:48:10.435Z,99927.91
2023-05-24T08:50:13.782Z,99930.25
2023-05-24T08:52:16.958Z,99918.91
2023-05-24T08:54:20.428Z,99928.03
2023-05-24T08:56:24.290Z,99915.44
2023-05-24T08:58:27.282Z,99906.00
2023-05-24T09:00:29.980Z,99908.28
2023-05-24T09:02:33.713Z,99898.66
2023-05-24T09:04:37.476Z,99893.50
2023-05-24T09:06:40.574Z,99905.13
2023-05-24T09:08:44.215Z,99908.31
2023-05-24T09:10:54.877Z,99909.97
2023-05-24T09:12:58.887Z,99904.81
2023-05-24T09:15:01.864Z,99913.25
2023-05-24T09:17:08.541Z,99905.09
2023-05-24T09:19:12.021Z,99913.47
2023-05-24T09:21:15.235Z,99920.13
2023-05-24T09:23:18.756Z,99921.44
2023-05-24T09:25:21.918Z,99918.53
2023-05-24T09:27:24.661Z,99914.09
2023-05-24T09:29:27.226Z,99909.91
2023-05-24T09:31:37.438Z,99915.19
2023-05-24T09:33:40.544Z,99902.19
2023-05-24T09:35:44.403Z,99907.16
2023-05-24T09:37:47.433Z,99902.66
2023-05-24T09:39:51.947Z,99889.44
2023-05-24T09:41:56.929Z,99890.84
2023-05-24T09:43:59.793Z,99890.41
2023-05-24T09:46:03.827Z,99890.59
2023-05-24T09:48:11.213Z,99893.72
2023-05-24T09:50:16.369Z,99878.75
2023-05-24T09:52:19.332Z,99893.69
2023-05-24T09:54:22.201Z,99892.03
2023-05-24T09:56:24.981Z,99885.03
2023-05-24T09:58:33.687Z,99895.09
2023-05-24T10:00:41.589Z,99888.84
2023-05-24T10:02:52.340Z,99882.19
2023-05-24T10:05:03.432Z,99892.88
2023-05-24T10:07:08.715Z,99870.75
2023-05-24T10:09:11.923Z,99901.50
2023-05-24T10:11:14.628Z,99889.63
2023-05-24T10:13:18.326Z,99876.19
2023-05-24T10:15:21.156Z,99881.94
2023-05-24T10:17:28.150Z,99895.72
2023-05-24T10:19:34.640Z,99888.56
2023-05-24T10:21:42.912Z,99874.34
2023-05-24T10:23:52.932Z,99880.97
2023-05-24T10:26:04.046Z,99878.50
2023-05-24T10:28:12.652Z,99871.88
2023-05-24T10:30:21.306Z,99875.28
2023-05-24T10:32:25.418Z,99885.53
2023-05-24T10:34:28.853Z,99873.94
2023-05-24T10:36:32.972Z,99874.75
2023-05-24T10:38:41.075Z,99887.16
2023-05-24T10:40:44.033Z,99874.13
2023-05-24T10:42:49.169Z,99873.88
2023-05-24T10:44:52.376Z,99873.72
2023-05-24T10:47:12.527Z,99869.09
2023-05-24T10:49:16.333Z,99877.63
2023-05-24T10:51:38.627Z,99865.47
2023-05-24T10:53:41.823Z,99865.72
2023-05-24T10:55:56.494Z,99872.50
2023-05-24T10:57:59.275Z,99868.88
2023-05-24T11:02:36.225Z,99878.63
2023-05-24T11:04:43.671Z,99863.66
2023-05-24T11:06:50.181Z,99869.44
2023-05-24T11:08:53.989Z,99866.94
2023-05-24T11:11:22.533Z,99870.47
2023-05-24T11:13:28.166Z,99864.78
2023-05-24T11:15:30.906Z,99857.69
2023-05-24T11:18:14.905Z,99860.69
2023-05-24T11:20:18.241Z,99864.78
2023-05-24T11:22:23.070Z,99859.41
2023-05-24T11:24:27.516Z,99867.22
2023-05-24T11:26:30.669Z,99858.72
2023-05-24T11:28:37.553Z,99860.63
2023-05-24T11:30:48.124Z,99857.88
2023-05-24T11:32:50.955Z,99858.53
2023-05-24T11:34:53.683Z,99850.22
2023-05-24T11:36:56.647Z,99865.69
2023-05-24T11:38:59.448Z,99853.16
2023-05-24T11:41:02.046Z,99849.63
2023-05-24T11:43:07.058Z,99844.34
2023-05-24T11:45:10.682Z,99837.25
2023-05-24T11:47:13.658Z,99835.28
2023-05-24T11:49:17.555Z,99836.38
2023-05-24T11:51:29.923Z,99833.72
2023-05-24T11:53:32.579Z,99831.88
2023-05-24T11:55:35.257Z,99823.19
2023-05-24T11:57:41.409Z,99828.75
2023-05-24T11:59:44.157Z,99829.69
2023-05-24T12:01:46.829Z,99821.69
2023-05-24T12:03:50.048Z,99818.72
2023-05-24T12:05:57.480Z,99820.53
2023-05-24T12:08:12.681Z,99814.91
2023-05-24T12:10:21.520Z,99797.34
2023-05-24T12:12:30.887Z,99818.94
2023-05-24T12:14:41.054Z,99817.88
2023-05-24T12:16:45.644Z,99818.31
2023-05-24T12:19:02.294Z,99811.53
2023-05-24T12:21:14.015Z,99805.34
2023-05-24T12:23:21.937Z,99799.34
2023-05-24T12:25:27.170Z,99797.47
2023-05-24T12:27:31.585Z,99796.88
2023-05-24T12:29:41.213Z,99799.75
2023-05-24T12:31:47.979Z,99806.53
2023-05-24T12:33:52.150Z,99798.31
2023-05-24T12:35:57.035Z,99805.59
2023-05-24T12:38:00.358Z,99796.56
2023-05-24T12:40:05.385Z,99797.66
2023-05-24T12:42:09.134Z,99782.94
2023-05-24T12:44:12.678Z,99798.16
2023-05-24T12:46:15.534Z,99801.34
2023-05-24T12:48:18.646Z,99804.34
2023-05-24T12:50:22.893Z,99797.84
2023-05-24T12:52:25.605Z,99798.75
2023-05-24T12:54:29.576Z,99793.03
2023-05-24T12:56:32.359Z,99787.84
2023-05-24T12:58:34.971Z,99787.69
2023-05-24T13:00:38.314Z,99790.88
2023-05-24T13:02:41.112Z,99792.28
2023-05-24T13:04:43.991Z,99805.84
2023-05-24T13:06:48.352Z,99797.28
2023-05-24T13:08:51.225Z,99792.00
2023-05-24T13:10:54.079Z,99795.78
2023-05-24T13:12:57.639Z,99796.97
2023-05-24T13:15:00.479Z,99787.31
2023-05-24T13:17:03.211Z,99797.47
2023-05-24T13:19:05.989Z,99782.81
2023-05-24T13:21:11.375Z,99799.69
2023-05-24T13:23:14.965Z,99799.31
2023-05-24T13:25:17.674Z,99794.44
2023-05-24T13:27:20.299Z,99801.38
2023-05-24T13:29:36.848Z,99796.34
2023-05-24T13:31:43.001Z,99796.38
2023-05-24T13:33:45.880Z,99802.19
2023-05-24T13:35:48.559Z,99803.00
2023-05-24T13:37:52.926Z,99801.72
2023-05-24T13:39:56.189Z,99805.09
2023-05-24T13:42:01.058Z,99803.91
2023-05-24T13:44:04.028Z,99795.84
2023-05-24T13:46:06.757Z,99801.66
2023-05-24T13:48:10.433Z,99805.69
2023-05-24T13:50:13.166Z,99808.38
2023-05-24T13:52:16.620Z,99803.03
2023-05-24T13:54:19.426Z,99808.81
2023-05-24T13:56:24.340Z,99801.66
2023-05-24T13:58:26.959Z,99794.31
2023-05-24T14:00:29.590Z,99799.06
2023-05-24T14:02:32.305Z,99797.25
2023-05-24T14:04:35.084Z,99794.59
2023-05-24T14:06:38.537Z,99798.78
2023-05-24T14:08:41.695Z,99800.47
2023-05-24T14:10:45.228Z,99802.53
2023-05-24T14:12:59.605Z,99795.22
2023-05-24T14:15:07.659Z,99790.72
2023-05-24T14:17:11.330Z,99794.59
2023-05-24T14:19:13.971Z,99796.91
2023-05-24T14:21:19.168Z,99789.13
2023-05-24T14:23:21.872Z,99797.13
2023-05-24T14:25:24.462Z,99794.50
2023-05-24T14:27:27.242Z,99800.56
2023-05-24T14:29:30.047Z,99794.81
2023-05-24T14:31:34.394Z,99788.53
2023-05-24T14:33:38.166Z,99799.59
2023-05-24T14:35:41.406Z,99795.78
2023-05-24T14:37:44.292Z,99796.44
2023-05-24T14:39:47.041Z,99791.06
2023-05-24T14:41:49.720Z,99787.50
2023-05-24T14:43:52.459Z,99792.44
2023-05-24T14:45:55.265Z,99802.19
2023-05-24T14:47:58.412Z,99799.78
2023-05-24T14:50:01.174Z,99793.50
2023-05-24T14:52:04.182Z,99792.38
2023-05-24T14:54:07.407Z,99783.38
2023-05-24T14:56:11.081Z,99794.88
2023-05-24T14:58:15.557Z,99795.66
2023-05-24T15:00:21.573Z,99800.16
2023-05-24T15:02:25.497Z,99787.88
2023-05-24T15:04:28.390Z,99795.59
2023-05-24T15:06:35.010Z,99791.63
2023-05-24T15:08:37.883Z,99791.34
2023-05-24T15:10:40.980Z,99784.22
2023-05-24T15:12:44.572Z,99787.16
2023-05-24T15:14:47.186Z,99791.38
2023-05-24T15:16:51.105Z,99783.03
2023-05-24T15:18:53.983Z,99795.41
2023-05-24T15:20:56.831Z,99791.59
2023-05-24T15:23:03.761Z,99790.84
2023-05-24T15:25:07.368Z,99787.25
2023-05-24T15:27:10.815Z,99789.75
2023-05-24T15:29:13.528Z,99788.69
2023-05-24T15:31:16.305Z,99794.00
2023-05-24T15:33:19.056Z,99802.22
2023-05-24T15:35:21.901Z,99793.06
2023-05-24T15:37:24.507Z,99800.69
2023-05-24T15:39:27.143Z,99791.50
2023-05-24T15:41:29.842Z,99794.78
2023-05-24T15:43:32.450Z,99801.28
2023-05-24T15:45:35.465Z,99800.22
2023-05-24T15:47:40.443Z,99798.38
2023-05-24T15:49:43.381Z,99792.84
2023-05-24T15:52:03.659Z,99798.53
2023-05-24T15:54:07.406Z,99791.47
2023-05-24T15:56:10.414Z,99787.53
2023-05-24T15:58:14.596Z,99794.44
2023-05-24T16:00:18.350Z,99792.53
2023-05-24T16:02:21.547Z,99788.28
2023-05-24T16:04:24.419Z,99790.44
2023-05-24T16:06:27.062Z,99789.69
2023-05-24T16:08:30.164Z,99794.69
2023-05-24T16:10:32.777Z,99787.97
2023-05-24T16:12:35.536Z,99788.84
2023-05-24T16:14:38.202Z,99782.50
2023-05-24T16:16:42.184Z,99794.22
2023-05-24T16:18:44.824Z,99783.81
2023-05-24T16:20:51.123Z,99783.09
2023-05-24T16:22:54.183Z,99790.72
2023-05-24T16:24:56.870Z,99790.34
2023-05-24T16:26:59.613Z,99794.38
2023-05-24T16:29:02.212Z,99797.59
2023-05-24T16:31:04.901Z,99789.63
2023-05-24T16:33:07.799Z,99786.47
2023-05-24T16:35:10.870Z,99789.72
2023-05-24T16:37:13.523Z,99784.91
2023-05-24T16:39:16.377Z,99787.38
2023-05-24T16:41:19.002Z,99790.63
2023-05-24T16:43:21.834Z,99790.69
2023-05-24T16:45:24.560Z,99789.16
2023-05-24T16:47:29.583Z,99792.44
2023-05-24T16:49:32.611Z,99792.03
2023-05-24T16:51:35.541Z,99786.44
2023-05-24T16:53:38.665Z,99786.09
2023-05-24T16:55:41.530Z,99795.34
2023-05-24T16:57:44.292Z,99794.16
2023-05-24T16:59:50.581Z,99792.59
2023-05-24T17:01:53.633Z,99797.44
2023-05-24T17:03:56.750Z,99803.06
2023-05-24T17:06:05.145Z,99805.50
2023-05-24T17:08:08.530Z,99806.75
2023-05-24T17:10:11.643Z,99808.31
2023-05-24T17:12:14.292Z,99805.50
2023-05-24T17:14:16.823Z,99806.31
2023-05-24T17:16:19.743Z,99808.34
2023-05-24T17:18:28.397Z,99798.34
2023-05-24T17:20:31.829Z,99801.94
2023-05-24T17:22:34.819Z,99799.53
2023-05-24T17:24:37.533Z,99797.56
2023-05-24T17:26:42.294Z,99802.38
2023-05-24T17:28:45.379Z,99808.78
2023-05-24T17:30:48.666Z,99810.78
2023-05-24T17:32:51.394Z,99815.97
2023-05-24T17:34:54.126Z,99807.97
2023-05-24T17:36:56.728Z,99810.75
2023-05-24T17:38:59.682Z,99803.94
2023-05-24T17:41:02.337Z,99801.53
2023-05-24T17:43:05.052Z,99800.31
2023-05-24T17:45:08.651Z,99809.50
2023-05-24T17:47:11.286Z,99802.72
2023-05-24T17:49:14.289Z,99807.09
2023-05-24T17:51:19.676Z,99806.28
2023-05-24T17:53:31.266Z,99807.09
2023-05-24T17:55:35.315Z,99805.88
2023-05-24T17:57:38.108Z,99811.84
2023-05-24T17:59:40.722Z,99806.22
2023-05-24T18:01:45.253Z,99812.22
2023-05-24T18:03:48.931Z,99809.00
2023-05-24T18:05:52.969Z,99806.19
2023-05-24T18:07:55.812Z,99809.00
2023-05-24T18:10:00.196Z,99806.16
2023-05-24T18:12:03.311Z,99805.34
2023-05-24T18:14:05.918Z,99807.31
2023-05-24T18:16:11.125Z,99800.09
2023-05-24T18:18:13.908Z,99806.50
2023-05-24T18:20:16.601Z,99789.25
2023-05-24T18:22:19.506Z,99793.28
2023-05-24T18:24:22.078Z,99797.66
2023-05-24T18:26:24.734Z,99804.84
2023-05-24T18:28:27.542Z,99802.44
2023-05-24T18:30:30.204Z,99803.59
2023-05-24T18:32:55.957Z,99799.59
2023-05-24T18:35:06.535Z,99797.53
2023-05-24T18:37:09.140Z,99801.16
2023-05-24T18:39:11.826Z,99795.13
2023-05-24T18:41:15.224Z,99801.50
2023-05-24T18:43:17.833Z,99798.69
2023-05-24T18:45:20.423Z,99798.66
2023-05-24T18:47:23.323Z,99808.22
2023-05-24T18:49:25.948Z,99810.22
2023-05-24T18:51:28.834Z,99799.78
2023-05-24T18:53:31.632Z,99805.38
2023-05-24T18:55:34.218Z,99800.56
2023-05-24T18:57:38.245Z,99801.78
2023-05-24T18:59:41.117Z,99801.72
2023-05-24T19:01:44.461Z,99803.69
2023-05-24T19:03:47.012Z,99791.28
2023-05-24T19:05:49.971Z,99800.88
2023-05-24T19:07:53.036Z,99798.03
2023-05-24T19:09:55.583Z,99798.44
2023-05-24T19:11:59.364Z,99796.81
2023-05-24T19:14:02.128Z,99790.78
2023-05-24T19:16:04.938Z,99796.78
2023-05-24T19:18:07.952Z,99801.19
2023-05-24T19:20:11.764Z,99793.19
2023-05-24T19:22:14.427Z,99793.59
2023-05-24T19:24:17.024Z,99789.16
2023-05-24T19:26:19.853Z,99787.19
2023-05-24T19:28:22.509Z,99800.34
2023-05-24T19:30:25.108Z,99793.16
2023-05-24T19:32:27.906Z,99799.16
2023-05-24T19:34:35.394Z,99800.75
2023-05-24T19:36:38.001Z,99793.53
2023-05-24T19:38:40.997Z,99794.75
2023-05-24T19:40:43.646Z,99791.16
2023-05-24T19:42:46.288Z,99792.31
2023-05-24T19:44:48.931Z,99791.94
2023-05-24T19:46:51.750Z,99789.13
2023-05-24T19:48:54.459Z,99793.53
2023-05-24T19:50:57.063Z,99785.88
2023-05-24T19:52:59.702Z,99791.47
2023-05-24T19:55:02.347Z,99794.63
2023-05-24T19:57:08.964Z,99795.81
2023-05-24T19:59:11.680Z,99806.53
2023-05-24T20:01:14.584Z,99795.31
2023-05-24T20:03:17.449Z,99798.09
2023-05-24T20:05:20.128Z,99804.84
2023-05-24T20:07:22.722Z,99815.22
2023-05-24T20:09:25.395Z,99817.16
2023-05-24T20:11:28.291Z,99813.53
2023-05-24T20:13:31.026Z,99809.88
2023-05-24T20:15:33.696Z,99811.47
2023-05-24T20:17:36.506Z,99810.25
2023-05-24T20:19:39.252Z,99815.41
2023-05-24T20:21:41.926Z,99814.19
2023-05-24T20:23:44.585Z,99811.38
2023-05-24T20:25:47.514Z,99820.19
2023-05-24T20:27:50.263Z,99819.41
2023-05-24T20:29:52.819Z,99822.56
2023-05-24T20:31:55.975Z,99807.38
2023-05-24T20:33:58.697Z,99816.53
2023-05-24T20:36:01.284Z,99808.53
2023-05-24T20:38:03.916Z,99812.09
2023-05-24T20:40:07.769Z,99811.66
2023-05-24T20:42:11.225Z,99810.41
2023-05-24T20:44:13.901Z,99818.38
2023-05-24T20:46:16.851Z,99816.78
2023-05-24T20:48:19.584Z,99817.19
2023-05-24T20:50:22.479Z,99814.81
2023-05-24T20:52:25.252Z,99818.03
2023-05-24T20:54:28.665Z,99814.09
2023-05-24T20:56:40.010Z,99811.28
2023-05-24T20:58:47.499Z,99818.91
2023-05-24T21:00:50.360Z,99818.13
2023-05-24T21:02:53.357Z,99816.16
2023-05-24T21:04:56.608Z,99819.31
2023-05-24T21:06:59.369Z,99813.31
2023-05-24T21:09:02.387Z,99805.72
2023-05-24T21:11:05.301Z,99810.09
2023-05-24T21:13:08.323Z,99808.09
2023-05-24T21:15:10.941Z,99804.41
2023-05-24T21:17:13.770Z,99805.97
2023-05-24T21:19:16.644Z,99804.69
2023-05-24T21:21:19.422Z,99806.28
2023-05-24T21:23:22.209Z,99807.03
2023-05-24T21:25:25.069Z,99807.81
2023-05-24T21:27:27.870Z,99800.19
2023-05-24T21:29:30.614Z,99806.19
2023-05-24T21:31:35.860Z,99805.41
2023-05-24T21:33:42.783Z,99806.59
2023-05-24T21:35:45.743Z,99815.75
2023-05-24T21:37:48.796Z,99810.53
2023-05-24T21:39:51.405Z,99818.50
2023-05-24T21:41:54.078Z,99815.75
2023-05-24T21:43:56.709Z,99808.56
2023-05-24T21:45:59.304Z,99811.78
2023-05-24T21:48:01.980Z,99817.31
2023-05-24T21:50:05.482Z,99812.13
2023-05-24T21:52:08.413Z,99815.69
2023-05-24T21:54:11.246Z,99815.63
2023-05-24T21:56:13.819Z,99811.59
2023-05-24T21:58:16.509Z,99812.78
2023-05-24T22:00:22.031Z,99813.13
2023-05-24T22:02:25.271Z,99813.88
2023-05-24T22:04:28.066Z,99808.69
2023-05-24T22:06:31.446Z,99804.72
2023-05-24T22:08:34.097Z,99805.47
2023-05-24T22:10:36.772Z,99810.25
2023-05-24T22:12:39.450Z,99801.38
2023-05-24T22:14:42.047Z,99813.00
2023-05-24T22:16:44.821Z,99812.94
2023-05-24T22:18:48.185Z,99808.91
2023-05-24T22:20:51.081Z,99814.47
2023-05-24T22:22:53.895Z,99806.00
2023-05-24T22:24:56.744Z,99812.75
2023-05-24T22:27:01.407Z,99817.53
2023-05-24T22:29:04.545Z,99820.28
2023-05-24T22:31:07.240Z,99815.44
2023-05-24T22:33:10.576Z,99812.59
2023-05-24T22:35:13.250Z,99824.91
2023-05-24T22:37:17.082Z,99823.31
2023-05-24T22:39:19.821Z,99822.91
2023-05-24T22:41:23.061Z,99822.81
2023-05-24T22:43:25.781Z,99818.78
2023-05-24T22:45:28.349Z,99829.88
2023-05-24T22:47:33.493Z,99833.47
2023-05-24T22:49:36.665Z,99840.56
2023-05-24T22:51:44.441Z,99831.72
2023-05-24T22:53:48.028Z,99840.06
2023-05-24T22:55:50.898Z,99840.03
2023-05-24T22:57:53.608Z,99837.59
2023-05-24T22:59:56.161Z,99843.53
2023-05-24T23:01:58.902Z,99845.16
2023-05-24T23:04:18.973Z,99848.31
2023-05-24T23:06:25.711Z,99845.47
2023-05-24T23:08:28.372Z,99844.66
2023-05-24T23:10:31.349Z,99844.28
2023-05-24T23:12:34.369Z,99843.94
2023-05-24T23:14:38.669Z,99845.97
2023-05-24T23:16:45.697Z,99839.63
2023-05-24T23:18:48.686Z,99839.28
2023-05-24T23:20:54.342Z,99838.06
2023-05-24T23:22:59.010Z,99842.50
2023-05-24T23:25:02.604Z,99845.75
2023-05-24T23:27:07.034Z,99844.94
2023-05-24T23:29:09.863Z,99851.31
2023-05-24T23:31:12.794Z,99843.72
2023-05-24T23:33:15.682Z,99843.28
2023-05-24T23:35:18.226Z,99845.72
2023-05-24T23:37:20.992Z,99840.13
2023-05-24T23:39:23.633Z,99845.31
2023-05-24T23:41:26.670Z,99839.75
2023-05-24T23:43:29.488Z,99851.72
2023-05-24T23:45:32.427Z,99843.81
2023-05-24T23:47:35.073Z,99854.66
2023-05-24T23:49:37.832Z,99848.66
2023-05-24T23:51:40.649Z,99848.72
2023-05-24T23:53:43.238Z,99850.69
2023-05-24T23:55:46.587Z,99845.56
2023-05-24T23:57:49.501Z,99849.56
2023-05-24T23:59:52.179Z,99855.16
